sensor_id;sensor_type;location;lat;lon;timestamp;P1;durP1;ratioP1;P2;durP2;ratioP2
19800;SDS011;10060;48.274;12.214;2022-09-03T00:02:05;7.07;;;3.67;;
19800;SDS011;10060;48.274;12.214;2022-09-03T00:05:09;5.60;;;3.73;;
19800;SDS011;10060;48.274;12.214;2022-09-03T00:08:13;5.10;;;3.83;;
19800;SDS011;10060;48.274;12.214;2022-09-03T00:11:21;6.13;;;3.90;;
19800;SDS011;10060;48.274;12.214;2022-09-03T00:14:27;5.63;;;3.87;;
19800;SDS011;10060;48.274;12.214;2022-09-03T00:17:34;6.47;;;3.87;;
19800;SDS011;10060;48.274;12.214;2022-09-03T00:20:38;5.23;;;3.50;;
19800;SDS011;10060;48.274;12.214;2022-09-03T00:23:41;4.00;;;3.70;;
19800;SDS011;10060;48.274;12.214;2022-09-03T00:26:44;4.43;;;3.90;;
19800;SDS011;10060;48.274;12.214;2022-09-03T00:29:49;4.40;;;3.37;;
19800;SDS011;10060;48.274;12.214;2022-09-03T00:32:53;5.67;;;3.57;;
19800;SDS011;10060;48.274;12.214;2022-09-03T00:36:02;4.30;;;3.90;;
19800;SDS011;10060;48.274;12.214;2022-09-03T00:39:06;7.27;;;3.50;;
19800;SDS011;10060;48.274;12.214;2022-09-03T00:42:13;4.07;;;3.67;;
19800;SDS011;10060;48.274;12.214;2022-09-03T00:45:26;4.30;;;3.73;;
19800;SDS011;10060;48.274;12.214;2022-09-03T00:48:34;5.17;;;3.70;;
19800;SDS011;10060;48.274;12.214;2022-09-03T00:51:43;4.53;;;3.63;;
19800;SDS011;10060;48.274;12.214;2022-09-03T00:54:52;4.37;;;3.93;;
19800;SDS011;10060;48.274;12.214;2022-09-03T00:58:00;5.67;;;3.83;;
19800;SDS011;10060;48.274;12.214;2022-09-03T01:01:08;5.17;;;4.13;;
19800;SDS011;10060;48.274;12.214;2022-09-03T01:04:17;6.00;;;4.03;;
19800;SDS011;10060;48.274;12.214;2022-09-03T01:07:26;5.53;;;3.93;;
19800;SDS011;10060;48.274;12.214;2022-09-03T01:10:31;6.87;;;3.87;;
19800;SDS011;10060;48.274;12.214;2022-09-03T01:13:38;3.80;;;3.40;;
19800;SDS011;10060;48.274;12.214;2022-09-03T01:16:45;4.13;;;3.20;;
19800;SDS011;10060;48.274;12.214;2022-09-03T01:20:01;3.63;;;3.20;;
19800;SDS011;10060;48.274;12.214;2022-09-03T01:23:14;4.37;;;3.40;;
19800;SDS011;10060;48.274;12.214;2022-09-03T01:26:28;4.70;;;4.27;;
19800;SDS011;10060;48.274;12.214;2022-09-03T01:29:33;4.37;;;3.67;;
19800;SDS011;10060;48.274;12.214;2022-09-03T01:32:41;4.90;;;3.37;;
19800;SDS011;10060;48.274;12.214;2022-09-03T01:35:45;5.03;;;3.80;;
19800;SDS011;10060;48.274;12.214;2022-09-03T01:38:49;4.00;;;3.60;;
19800;SDS011;10060;48.274;12.214;2022-09-03T01:41:55;4.57;;;3.60;;
19800;SDS011;10060;48.274;12.214;2022-09-03T01:45:35;4.00;;;3.60;;
19800;SDS011;10060;48.274;12.214;2022-09-03T01:48:44;3.83;;;3.50;;
19800;SDS011;10060;48.274;12.214;2022-09-03T01:51:49;4.13;;;3.60;;
19800;SDS011;10060;48.274;12.214;2022-09-03T01:54:59;4.77;;;3.67;;
19800;SDS011;10060;48.274;12.214;2022-09-03T01:58:07;4.00;;;3.70;;
19800;SDS011;10060;48.274;12.214;2022-09-03T02:01:13;5.00;;;3.50;;
19800;SDS011;10060;48.274;12.214;2022-09-03T02:04:18;3.80;;;3.37;;
19800;SDS011;10060;48.274;12.214;2022-09-03T02:07:22;3.90;;;3.50;;
19800;SDS011;10060;48.274;12.214;2022-09-03T02:10:26;4.10;;;3.53;;
19800;SDS011;10060;48.274;12.214;2022-09-03T02:13:31;4.67;;;3.90;;
19800;SDS011;10060;48.274;12.214;2022-09-03T02:16:38;5.30;;;3.93;;
19800;SDS011;10060;48.274;12.214;2022-09-03T02:19:40;6.53;;;3.83;;
19800;SDS011;10060;48.274;12.214;2022-09-03T02:22:42;6.07;;;4.20;;
19800;SDS011;10060;48.274;12.214;2022-09-03T02:25:46;4.60;;;4.20;;
19800;SDS011;10060;48.274;12.214;2022-09-03T02:28:49;4.80;;;4.30;;
19800;SDS011;10060;48.274;12.214;2022-09-03T02:31:52;6.50;;;4.30;;
19800;SDS011;10060;48.274;12.214;2022-09-03T02:34:55;5.97;;;4.40;;
19800;SDS011;10060;48.274;12.214;2022-09-03T02:38:07;3.90;;;3.60;;
19800;SDS011;10060;48.274;12.214;2022-09-03T02:41:09;4.33;;;3.93;;
19800;SDS011;10060;48.274;12.214;2022-09-03T02:44:12;4.60;;;3.63;;
19800;SDS011;10060;48.274;12.214;2022-09-03T02:47:18;5.50;;;3.43;;
19800;SDS011;10060;48.274;12.214;2022-09-03T02:50:20;4.33;;;3.93;;
19800;SDS011;10060;48.274;12.214;2022-09-03T02:53:23;5.50;;;4.03;;
19800;SDS011;10060;48.274;12.214;2022-09-03T02:56:27;4.63;;;4.10;;
19800;SDS011;10060;48.274;12.214;2022-09-03T02:59:29;4.13;;;3.73;;
19800;SDS011;10060;48.274;12.214;2022-09-03T03:02:32;4.93;;;4.00;;
19800;SDS011;10060;48.274;12.214;2022-09-03T03:05:37;4.40;;;4.00;;
19800;SDS011;10060;48.274;12.214;2022-09-03T03:08:42;4.93;;;4.40;;
19800;SDS011;10060;48.274;12.214;2022-09-03T03:11:45;4.60;;;4.10;;
19800;SDS011;10060;48.274;12.214;2022-09-03T03:14:49;5.23;;;4.20;;
19800;SDS011;10060;48.274;12.214;2022-09-03T03:17:52;5.40;;;3.73;;
19800;SDS011;10060;48.274;12.214;2022-09-03T03:20:56;4.80;;;4.40;;
19800;SDS011;10060;48.274;12.214;2022-09-03T03:23:59;4.60;;;3.97;;
19800;SDS011;10060;48.274;12.214;2022-09-03T03:27:01;4.37;;;3.97;;
19800;SDS011;10060;48.274;12.214;2022-09-03T03:30:06;4.73;;;4.27;;
19800;SDS011;10060;48.274;12.214;2022-09-03T03:33:10;7.73;;;4.63;;
19800;SDS011;10060;48.274;12.214;2022-09-03T03:36:13;4.40;;;4.00;;
19800;SDS011;10060;48.274;12.214;2022-09-03T03:39:15;5.33;;;4.33;;
19800;SDS011;10060;48.274;12.214;2022-09-03T03:42:17;4.30;;;3.90;;
19800;SDS011;10060;48.274;12.214;2022-09-03T03:45:19;4.40;;;4.00;;
19800;SDS011;10060;48.274;12.214;2022-09-03T03:48:23;5.00;;;4.10;;
19800;SDS011;10060;48.274;12.214;2022-09-03T03:51:25;5.20;;;4.00;;
19800;SDS011;10060;48.274;12.214;2022-09-03T03:54:27;6.30;;;4.30;;
19800;SDS011;10060;48.274;12.214;2022-09-03T03:57:30;5.20;;;4.70;;
19800;SDS011;10060;48.274;12.214;2022-09-03T04:00:32;4.20;;;3.90;;
19800;SDS011;10060;48.274;12.214;2022-09-03T04:03:38;5.00;;;4.60;;
19800;SDS011;10060;48.274;12.214;2022-09-03T04:06:40;5.27;;;4.67;;
19800;SDS011;10060;48.274;12.214;2022-09-03T04:09:42;5.20;;;4.30;;
19800;SDS011;10060;48.274;12.214;2022-09-03T04:12:44;5.10;;;4.60;;
19800;SDS011;10060;48.274;12.214;2022-09-03T04:15:46;4.67;;;4.23;;
19800;SDS011;10060;48.274;12.214;2022-09-03T04:18:50;6.00;;;4.80;;
19800;SDS011;10060;48.274;12.214;2022-09-03T04:21:53;7.23;;;4.80;;
19800;SDS011;10060;48.274;12.214;2022-09-03T04:24:55;5.47;;;4.57;;
19800;SDS011;10060;48.274;12.214;2022-09-03T04:27:57;5.73;;;4.53;;
19800;SDS011;10060;48.274;12.214;2022-09-03T04:30:59;5.80;;;4.90;;
19800;SDS011;10060;48.274;12.214;2022-09-03T04:34:03;5.37;;;4.40;;
19800;SDS011;10060;48.274;12.214;2022-09-03T04:37:05;4.80;;;4.30;;
19800;SDS011;10060;48.274;12.214;2022-09-03T04:40:08;5.43;;;4.97;;
19800;SDS011;10060;48.274;12.214;2022-09-03T04:43:10;6.53;;;4.83;;
19800;SDS011;10060;48.274;12.214;2022-09-03T04:46:13;6.00;;;4.80;;
19800;SDS011;10060;48.274;12.214;2022-09-03T04:49:17;6.07;;;5.47;;
19800;SDS011;10060;48.274;12.214;2022-09-03T04:52:19;5.30;;;4.80;;
19800;SDS011;10060;48.274;12.214;2022-09-03T04:55:21;5.37;;;4.70;;
19800;SDS011;10060;48.274;12.214;2022-09-03T04:58:24;5.57;;;4.60;;
19800;SDS011;10060;48.274;12.214;2022-09-03T05:01:26;5.73;;;4.73;;
19800;SDS011;10060;48.274;12.214;2022-09-03T05:04:30;5.50;;;4.70;;
19800;SDS011;10060;48.274;12.214;2022-09-03T05:07:32;6.10;;;5.30;;
19800;SDS011;10060;48.274;12.214;2022-09-03T05:10:37;5.60;;;5.10;;
19800;SDS011;10060;48.274;12.214;2022-09-03T05:13:40;5.00;;;4.50;;
19800;SDS011;10060;48.274;12.214;2022-09-03T05:16:42;5.47;;;4.97;;
19800;SDS011;10060;48.274;12.214;2022-09-03T05:19:46;8.73;;;4.90;;
19800;SDS011;10060;48.274;12.214;2022-09-03T05:22:48;5.33;;;4.83;;
19800;SDS011;10060;48.274;12.214;2022-09-03T05:25:53;6.23;;;4.90;;
19800;SDS011;10060;48.274;12.214;2022-09-03T05:28:57;7.60;;;4.80;;
19800;SDS011;10060;48.274;12.214;2022-09-03T05:31:59;7.37;;;4.63;;
19800;SDS011;10060;48.274;12.214;2022-09-03T05:35:03;10.77;;;4.67;;
19800;SDS011;10060;48.274;12.214;2022-09-03T05:38:06;7.97;;;4.87;;
19800;SDS011;10060;48.274;12.214;2022-09-03T05:41:09;6.13;;;5.30;;
19800;SDS011;10060;48.274;12.214;2022-09-03T05:44:11;5.77;;;5.17;;
19800;SDS011;10060;48.274;12.214;2022-09-03T05:47:13;7.40;;;5.50;;
19800;SDS011;10060;48.274;12.214;2022-09-03T05:50:17;6.77;;;5.73;;
19800;SDS011;10060;48.274;12.214;2022-09-03T05:53:19;6.40;;;5.47;;
19800;SDS011;10060;48.274;12.214;2022-09-03T05:56:22;5.77;;;5.17;;
19800;SDS011;10060;48.274;12.214;2022-09-03T05:59:25;5.83;;;5.07;;
19800;SDS011;10060;48.274;12.214;2022-09-03T06:02:27;9.80;;;5.80;;
19800;SDS011;10060;48.274;12.214;2022-09-03T06:05:30;6.40;;;5.63;;
19800;SDS011;10060;48.274;12.214;2022-09-03T06:08:33;6.33;;;5.40;;
19800;SDS011;10060;48.274;12.214;2022-09-03T06:11:37;6.10;;;5.40;;
19800;SDS011;10060;48.274;12.214;2022-09-03T06:14:41;6.10;;;5.50;;
19800;SDS011;10060;48.274;12.214;2022-09-03T06:17:43;7.73;;;5.27;;
19800;SDS011;10060;48.274;12.214;2022-09-03T06:20:53;5.67;;;5.17;;
19800;SDS011;10060;48.274;12.214;2022-09-03T06:23:56;7.90;;;5.27;;
19800;SDS011;10060;48.274;12.214;2022-09-03T06:26:58;6.47;;;5.87;;
19800;SDS011;10060;48.274;12.214;2022-09-03T06:30:00;6.03;;;5.20;;
19800;SDS011;10060;48.274;12.214;2022-09-03T06:33:03;6.00;;;5.27;;
19800;SDS011;10060;48.274;12.214;2022-09-03T06:36:07;10.20;;;7.17;;
19800;SDS011;10060;48.274;12.214;2022-09-03T06:39:10;6.70;;;5.27;;
19800;SDS011;10060;48.274;12.214;2022-09-03T06:42:12;8.27;;;5.30;;
19800;SDS011;10060;48.274;12.214;2022-09-03T06:45:14;6.10;;;5.47;;
19800;SDS011;10060;48.274;12.214;2022-09-03T06:48:17;6.47;;;5.40;;
19800;SDS011;10060;48.274;12.214;2022-09-03T06:51:21;5.87;;;5.10;;
19800;SDS011;10060;48.274;12.214;2022-09-03T06:54:23;9.43;;;5.17;;
19800;SDS011;10060;48.274;12.214;2022-09-03T06:57:26;7.27;;;5.70;;
19800;SDS011;10060;48.274;12.214;2022-09-03T07:00:28;7.70;;;5.47;;
19800;SDS011;10060;48.274;12.214;2022-09-03T07:03:30;11.90;;;5.97;;
19800;SDS011;10060;48.274;12.214;2022-09-03T07:06:35;5.30;;;4.80;;
19800;SDS011;10060;48.274;12.214;2022-09-03T07:09:37;6.03;;;5.23;;
19800;SDS011;10060;48.274;12.214;2022-09-03T07:12:39;9.10;;;5.83;;
19800;SDS011;10060;48.274;12.214;2022-09-03T07:15:41;17.63;;;12.70;;
19800;SDS011;10060;48.274;12.214;2022-09-03T07:18:44;9.10;;;5.90;;
19800;SDS011;10060;48.274;12.214;2022-09-03T07:21:47;6.73;;;5.63;;
19800;SDS011;10060;48.274;12.214;2022-09-03T07:24:49;7.00;;;6.20;;
19800;SDS011;10060;48.274;12.214;2022-09-03T07:27:52;6.87;;;6.27;;
19800;SDS011;10060;48.274;12.214;2022-09-03T07:30:54;9.50;;;6.00;;
19800;SDS011;10060;48.274;12.214;2022-09-03T07:34:01;8.20;;;5.90;;
19800;SDS011;10060;48.274;12.214;2022-09-03T07:37:06;7.57;;;5.60;;
19800;SDS011;10060;48.274;12.214;2022-09-03T07:40:08;7.93;;;5.63;;
19800;SDS011;10060;48.274;12.214;2022-09-03T07:43:11;7.07;;;5.17;;
19800;SDS011;10060;48.274;12.214;2022-09-03T07:46:13;19.25;;;6.30;;
19800;SDS011;10060;48.274;12.214;2022-09-03T07:49:18;6.57;;;5.70;;
19800;SDS011;10060;48.274;12.214;2022-09-03T07:52:22;6.27;;;5.63;;
19800;SDS011;10060;48.274;12.214;2022-09-03T07:55:24;6.95;;;5.90;;
19800;SDS011;10060;48.274;12.214;2022-09-03T07:58:27;11.93;;;6.32;;
19800;SDS011;10060;48.274;12.214;2022-09-03T08:01:30;7.83;;;5.67;;
19800;SDS011;10060;48.274;12.214;2022-09-03T08:04:32;6.80;;;5.85;;
19800;SDS011;10060;48.274;12.214;2022-09-03T08:07:36;8.77;;;5.35;;
19800;SDS011;10060;48.274;12.214;2022-09-03T08:10:38;8.82;;;5.35;;
19800;SDS011;10060;48.274;12.214;2022-09-03T08:13:41;9.02;;;5.70;;
19800;SDS011;10060;48.274;12.214;2022-09-03T08:16:44;6.82;;;5.88;;
19800;SDS011;10060;48.274;12.214;2022-09-03T08:19:46;9.35;;;7.25;;
19800;SDS011;10060;48.274;12.214;2022-09-03T08:22:51;8.13;;;5.65;;
19800;SDS011;10060;48.274;12.214;2022-09-03T08:25:56;8.63;;;5.97;;
19800;SDS011;10060;48.274;12.214;2022-09-03T08:28:59;6.63;;;6.03;;
19800;SDS011;10060;48.274;12.214;2022-09-03T08:32:02;8.57;;;6.70;;
19800;SDS011;10060;48.274;12.214;2022-09-03T08:35:05;6.07;;;5.47;;
19800;SDS011;10060;48.274;12.214;2022-09-03T08:38:10;6.70;;;5.65;;
19800;SDS011;10060;48.274;12.214;2022-09-03T08:41:14;8.70;;;5.97;;
19800;SDS011;10060;48.274;12.214;2022-09-03T08:44:19;11.35;;;6.05;;
19800;SDS011;10060;48.274;12.214;2022-09-03T08:47:24;7.00;;;5.65;;
19800;SDS011;10060;48.274;12.214;2022-09-03T08:50:30;9.75;;;6.53;;
19800;SDS011;10060;48.274;12.214;2022-09-03T08:53:35;6.53;;;5.45;;
19800;SDS011;10060;48.274;12.214;2022-09-03T08:56:39;6.38;;;5.57;;
19800;SDS011;10060;48.274;12.214;2022-09-03T08:59:41;6.65;;;6.03;;
19800;SDS011;10060;48.274;12.214;2022-09-03T09:02:47;6.72;;;5.75;;
19800;SDS011;10060;48.274;12.214;2022-09-03T09:05:52;7.38;;;5.82;;
19800;SDS011;10060;48.274;12.214;2022-09-03T09:09:00;6.65;;;5.32;;
19800;SDS011;10060;48.274;12.214;2022-09-03T09:12:09;8.68;;;6.63;;
19800;SDS011;10060;48.274;12.214;2022-09-03T09:15:17;8.50;;;6.68;;
19800;SDS011;10060;48.274;12.214;2022-09-03T09:18:22;6.82;;;6.13;;
19800;SDS011;10060;48.274;12.214;2022-09-03T09:21:30;7.90;;;6.60;;
19800;SDS011;10060;48.274;12.214;2022-09-03T09:24:38;6.88;;;6.18;;
19800;SDS011;10060;48.274;12.214;2022-09-03T09:27:44;7.90;;;6.40;;
19800;SDS011;10060;48.274;12.214;2022-09-03T09:30:53;8.52;;;6.50;;
19800;SDS011;10060;48.274;12.214;2022-09-03T09:33:59;8.35;;;6.10;;
19800;SDS011;10060;48.274;12.214;2022-09-03T09:37:02;10.48;;;6.38;;
19800;SDS011;10060;48.274;12.214;2022-09-03T09:40:07;6.80;;;6.13;;
19800;SDS011;10060;48.274;12.214;2022-09-03T09:43:10;7.25;;;6.50;;
19800;SDS011;10060;48.274;12.214;2022-09-03T09:46:15;8.88;;;6.07;;
19800;SDS011;10060;48.274;12.214;2022-09-03T09:49:24;10.60;;;7.10;;
19800;SDS011;10060;48.274;12.214;2022-09-03T09:52:29;6.50;;;5.88;;
19800;SDS011;10060;48.274;12.214;2022-09-03T09:55:32;7.57;;;6.25;;
19800;SDS011;10060;48.274;12.214;2022-09-03T09:58:38;7.53;;;6.25;;
19800;SDS011;10060;48.274;12.214;2022-09-03T10:01:40;6.78;;;6.05;;
19800;SDS011;10060;48.274;12.214;2022-09-03T10:04:43;10.75;;;5.63;;
19800;SDS011;10060;48.274;12.214;2022-09-03T10:07:53;8.68;;;6.15;;
19800;SDS011;10060;48.274;12.214;2022-09-03T10:10:56;8.70;;;6.13;;
19800;SDS011;10060;48.274;12.214;2022-09-03T10:13:58;11.45;;;5.25;;
19800;SDS011;10060;48.274;12.214;2022-09-03T10:17:03;6.38;;;5.70;;
19800;SDS011;10060;48.274;12.214;2022-09-03T10:20:08;6.32;;;5.03;;
19800;SDS011;10060;48.274;12.214;2022-09-03T10:23:29;6.10;;;5.50;;
19800;SDS011;10060;48.274;12.214;2022-09-03T10:26:35;5.65;;;5.07;;
19800;SDS011;10060;48.274;12.214;2022-09-03T10:29:37;6.25;;;5.32;;
19800;SDS011;10060;48.274;12.214;2022-09-03T10:32:42;7.90;;;6.10;;
19800;SDS011;10060;48.274;12.214;2022-09-03T10:35:49;6.10;;;5.25;;
19800;SDS011;10060;48.274;12.214;2022-09-03T10:38:53;7.72;;;5.22;;
19800;SDS011;10060;48.274;12.214;2022-09-03T10:42:05;6.45;;;5.18;;
19800;SDS011;10060;48.274;12.214;2022-09-03T10:45:17;8.32;;;5.35;;
19800;SDS011;10060;48.274;12.214;2022-09-03T10:51:45;8.07;;;5.57;;
19800;SDS011;10060;48.274;12.214;2022-09-03T10:54:54;8.77;;;5.28;;
19800;SDS011;10060;48.274;12.214;2022-09-03T10:58:08;6.32;;;4.75;;
19800;SDS011;10060;48.274;12.214;2022-09-03T11:01:18;6.13;;;5.13;;
19800;SDS011;10060;48.274;12.214;2022-09-03T11:04:25;6.05;;;5.43;;
19800;SDS011;10060;48.274;12.214;2022-09-03T11:07:30;4.70;;;4.30;;
19800;SDS011;10060;48.274;12.214;2022-09-03T11:10:37;5.65;;;5.00;;
19800;SDS011;10060;48.274;12.214;2022-09-03T11:13:45;5.80;;;4.63;;
19800;SDS011;10060;48.274;12.214;2022-09-03T11:16:48;5.88;;;4.80;;
19800;SDS011;10060;48.274;12.214;2022-09-03T11:19:54;5.75;;;4.97;;
19800;SDS011;10060;48.274;12.214;2022-09-03T11:22:58;6.28;;;5.00;;
19800;SDS011;10060;48.274;12.214;2022-09-03T11:26:04;6.90;;;5.47;;
19800;SDS011;10060;48.274;12.214;2022-09-03T11:29:10;4.90;;;4.40;;
19800;SDS011;10060;48.274;12.214;2022-09-03T11:32:14;6.63;;;4.40;;
19800;SDS011;10060;48.274;12.214;2022-09-03T11:35:24;5.03;;;4.53;;
19800;SDS011;10060;48.274;12.214;2022-09-03T11:38:27;4.97;;;3.78;;
19800;SDS011;10060;48.274;12.214;2022-09-03T11:41:31;3.90;;;3.60;;
19800;SDS011;10060;48.274;12.214;2022-09-03T11:44:37;3.65;;;3.35;;
19800;SDS011;10060;48.274;12.214;2022-09-03T11:47:40;4.18;;;3.72;;
19800;SDS011;10060;48.274;12.214;2022-09-03T11:50:50;4.38;;;3.97;;
19800;SDS011;10060;48.274;12.214;2022-09-03T11:53:53;4.22;;;3.83;;
19800;SDS011;10060;48.274;12.214;2022-09-03T11:57:05;4.05;;;3.50;;
19800;SDS011;10060;48.274;12.214;2022-09-03T12:00:12;4.55;;;2.83;;
19800;SDS011;10060;48.274;12.214;2022-09-03T12:03:20;4.07;;;2.70;;
19800;SDS011;10060;48.274;12.214;2022-09-03T12:06:30;4.45;;;2.90;;
19800;SDS011;10060;48.274;12.214;2022-09-03T12:09:38;2.70;;;2.50;;
19800;SDS011;10060;48.274;12.214;2022-09-03T12:12:48;3.70;;;2.30;;
19800;SDS011;10060;48.274;12.214;2022-09-03T12:15:59;2.47;;;2.28;;
19800;SDS011;10060;48.274;12.214;2022-09-03T12:19:08;3.08;;;2.72;;
19800;SDS011;10060;48.274;12.214;2022-09-03T12:22:12;5.55;;;2.88;;
19800;SDS011;10060;48.274;12.214;2022-09-03T12:25:15;3.28;;;2.70;;
19800;SDS011;10060;48.274;12.214;2022-09-03T12:28:18;3.63;;;2.75;;
19800;SDS011;10060;48.274;12.214;2022-09-03T12:31:24;4.28;;;2.40;;
19800;SDS011;10060;48.274;12.214;2022-09-03T12:34:28;3.65;;;2.85;;
19800;SDS011;10060;48.274;12.214;2022-09-03T12:37:32;4.32;;;3.70;;
19800;SDS011;10060;48.274;12.214;2022-09-03T12:40:39;3.95;;;3.25;;
19800;SDS011;10060;48.274;12.214;2022-09-03T12:43:48;4.63;;;3.42;;
19800;SDS011;10060;48.274;12.214;2022-09-03T12:47:00;4.63;;;2.90;;
19800;SDS011;10060;48.274;12.214;2022-09-03T12:50:04;3.97;;;2.42;;
19800;SDS011;10060;48.274;12.214;2022-09-03T12:53:07;3.03;;;2.72;;
19800;SDS011;10060;48.274;12.214;2022-09-03T12:56:10;4.38;;;2.60;;
19800;SDS011;10060;48.274;12.214;2022-09-03T12:59:14;2.78;;;2.53;;
19800;SDS011;10060;48.274;12.214;2022-09-03T13:02:20;2.35;;;2.15;;
19800;SDS011;10060;48.274;12.214;2022-09-03T13:05:26;2.38;;;2.17;;
19800;SDS011;10060;48.274;12.214;2022-09-03T13:08:31;2.55;;;2.35;;
19800;SDS011;10060;48.274;12.214;2022-09-03T13:11:35;2.63;;;2.22;;
19800;SDS011;10060;48.274;12.214;2022-09-03T13:14:41;2.35;;;2.15;;
19800;SDS011;10060;48.274;12.214;2022-09-03T13:17:56;3.13;;;2.40;;
19800;SDS011;10060;48.274;12.214;2022-09-03T13:21:05;2.95;;;2.58;;
19800;SDS011;10060;48.274;12.214;2022-09-03T13:24:15;2.38;;;2.17;;
19800;SDS011;10060;48.274;12.214;2022-09-03T13:27:22;2.33;;;2.13;;
19800;SDS011;10060;48.274;12.214;2022-09-03T13:30:28;2.33;;;2.13;;
19800;SDS011;10060;48.274;12.214;2022-09-03T13:33:35;2.50;;;2.30;;
19800;SDS011;10060;48.274;12.214;2022-09-03T13:36:40;2.38;;;2.00;;
19800;SDS011;10060;48.274;12.214;2022-09-03T13:39:45;2.20;;;1.98;;
19800;SDS011;10060;48.274;12.214;2022-09-03T13:42:50;3.90;;;2.30;;
19800;SDS011;10060;48.274;12.214;2022-09-03T13:45:55;3.50;;;2.13;;
19800;SDS011;10060;48.274;12.214;2022-09-03T13:49:01;3.35;;;2.15;;
19800;SDS011;10060;48.274;12.214;2022-09-03T13:52:26;2.00;;;1.70;;
19800;SDS011;10060;48.274;12.214;2022-09-03T13:55:32;2.10;;;1.90;;
19800;SDS011;10060;48.274;12.214;2022-09-03T13:58:37;2.95;;;1.95;;
19800;SDS011;10060;48.274;12.214;2022-09-03T14:01:49;2.03;;;1.77;;
19800;SDS011;10060;48.274;12.214;2022-09-03T14:05:00;3.00;;;1.90;;
19800;SDS011;10060;48.274;12.214;2022-09-03T14:08:05;2.53;;;1.95;;
19800;SDS011;10060;48.274;12.214;2022-09-03T14:11:18;2.22;;;2.00;;
19800;SDS011;10060;48.274;12.214;2022-09-03T14:14:30;2.92;;;1.92;;
19800;SDS011;10060;48.274;12.214;2022-09-03T14:17:38;3.05;;;1.52;;
19800;SDS011;10060;48.274;12.214;2022-09-03T14:20:45;2.38;;;2.00;;
19800;SDS011;10060;48.274;12.214;2022-09-03T14:23:50;2.40;;;2.20;;
19800;SDS011;10060;48.274;12.214;2022-09-03T14:26:55;1.70;;;1.60;;
19800;SDS011;10060;48.274;12.214;2022-09-03T14:29:58;1.88;;;1.70;;
19800;SDS011;10060;48.274;12.214;2022-09-03T14:33:03;1.88;;;1.70;;
19800;SDS011;10060;48.274;12.214;2022-09-03T14:36:11;2.33;;;2.13;;
19800;SDS011;10060;48.274;12.214;2022-09-03T14:39:22;2.13;;;1.92;;
19800;SDS011;10060;48.274;12.214;2022-09-03T14:42:35;4.93;;;2.38;;
19800;SDS011;10060;48.274;12.214;2022-09-03T14:45:47;4.45;;;1.92;;
19800;SDS011;10060;48.274;12.214;2022-09-03T14:49:03;2.47;;;2.28;;
19800;SDS011;10060;48.274;12.214;2022-09-03T14:52:14;2.60;;;2.35;;
19800;SDS011;10060;48.274;12.214;2022-09-03T14:55:22;3.72;;;2.00;;
19800;SDS011;10060;48.274;12.214;2022-09-03T14:58:34;2.60;;;1.88;;
19800;SDS011;10060;48.274;12.214;2022-09-03T15:01:38;2.65;;;2.13;;
19800;SDS011;10060;48.274;12.214;2022-09-03T15:04:45;2.35;;;2.10;;
19800;SDS011;10060;48.274;12.214;2022-09-03T15:07:51;1.95;;;1.77;;
19800;SDS011;10060;48.274;12.214;2022-09-03T15:10:55;4.32;;;2.15;;
19800;SDS011;10060;48.274;12.214;2022-09-03T15:13:59;4.53;;;2.33;;
19800;SDS011;10060;48.274;12.214;2022-09-03T15:17:13;2.53;;;1.92;;
19800;SDS011;10060;48.274;12.214;2022-09-03T15:20:19;3.88;;;2.00;;
19800;SDS011;10060;48.274;12.214;2022-09-03T15:23:24;2.28;;;1.92;;
19800;SDS011;10060;48.274;12.214;2022-09-03T15:29:50;2.75;;;2.20;;
19800;SDS011;10060;48.274;12.214;2022-09-03T15:32:57;2.65;;;1.88;;
19800;SDS011;10060;48.274;12.214;2022-09-03T15:36:11;5.57;;;2.25;;
19800;SDS011;10060;48.274;12.214;2022-09-03T15:39:19;3.85;;;2.30;;
19800;SDS011;10060;48.274;12.214;2022-09-03T15:42:24;4.47;;;2.20;;
19800;SDS011;10060;48.274;12.214;2022-09-03T15:45:31;3.05;;;2.40;;
19800;SDS011;10060;48.274;12.214;2022-09-03T15:48:36;6.00;;;2.72;;
19800;SDS011;10060;48.274;12.214;2022-09-03T15:51:46;3.28;;;2.50;;
19800;SDS011;10060;48.274;12.214;2022-09-03T15:54:57;3.67;;;2.80;;
19800;SDS011;10060;48.274;12.214;2022-09-03T15:58:04;4.13;;;2.75;;
19800;SDS011;10060;48.274;12.214;2022-09-03T16:01:10;4.30;;;2.80;;
19800;SDS011;10060;48.274;12.214;2022-09-03T16:04:21;5.82;;;3.10;;
19800;SDS011;10060;48.274;12.214;2022-09-03T16:07:29;3.50;;;2.65;;
19800;SDS011;10060;48.274;12.214;2022-09-03T16:10:41;3.38;;;2.92;;
19800;SDS011;10060;48.274;12.214;2022-09-03T16:13:49;3.28;;;2.97;;
19800;SDS011;10060;48.274;12.214;2022-09-03T16:16:56;7.22;;;4.47;;
19800;SDS011;10060;48.274;12.214;2022-09-03T16:20:01;5.35;;;3.45;;
19800;SDS011;10060;48.274;12.214;2022-09-03T16:23:05;5.78;;;3.72;;
19800;SDS011;10060;48.274;12.214;2022-09-03T16:26:11;4.93;;;4.47;;
19800;SDS011;10060;48.274;12.214;2022-09-03T16:29:14;5.85;;;4.82;;
19800;SDS011;10060;48.274;12.214;2022-09-03T16:32:20;8.10;;;5.25;;
19800;SDS011;10060;48.274;12.214;2022-09-03T16:35:28;9.70;;;5.80;;
19800;SDS011;10060;48.274;12.214;2022-09-03T16:38:33;15.70;;;6.05;;
19800;SDS011;10060;48.274;12.214;2022-09-03T16:41:41;8.38;;;4.95;;
19800;SDS011;10060;48.274;12.214;2022-09-03T16:44:48;6.47;;;4.97;;
19800;SDS011;10060;48.274;12.214;2022-09-03T16:47:58;7.47;;;3.17;;
19800;SDS011;10060;48.274;12.214;2022-09-03T16:51:06;11.30;;;3.80;;
19800;SDS011;10060;48.274;12.214;2022-09-03T16:54:14;10.70;;;4.30;;
19800;SDS011;10060;48.274;12.214;2022-09-03T16:57:22;4.70;;;3.47;;
19800;SDS011;10060;48.274;12.214;2022-09-03T17:00:35;4.10;;;2.83;;
19800;SDS011;10060;48.274;12.214;2022-09-03T17:03:42;4.10;;;2.50;;
19800;SDS011;10060;48.274;12.214;2022-09-03T17:06:55;5.53;;;2.90;;
19800;SDS011;10060;48.274;12.214;2022-09-03T17:10:02;3.55;;;2.70;;
19800;SDS011;10060;48.274;12.214;2022-09-03T17:13:16;5.40;;;2.65;;
19800;SDS011;10060;48.274;12.214;2022-09-03T17:16:23;3.42;;;2.38;;
19800;SDS011;10060;48.274;12.214;2022-09-03T17:19:30;2.53;;;2.20;;
19800;SDS011;10060;48.274;12.214;2022-09-03T17:22:37;2.58;;;1.70;;
19800;SDS011;10060;48.274;12.214;2022-09-03T17:25:47;4.43;;;1.92;;
19800;SDS011;10060;48.274;12.214;2022-09-03T17:28:57;2.83;;;2.08;;
19800;SDS011;10060;48.274;12.214;2022-09-03T17:32:04;1.90;;;1.50;;
19800;SDS011;10060;48.274;12.214;2022-09-03T17:35:11;2.33;;;1.63;;
19800;SDS011;10060;48.274;12.214;2022-09-03T17:38:21;1.60;;;1.50;;
19800;SDS011;10060;48.274;12.214;2022-09-03T17:41:28;2.42;;;1.20;;
19800;SDS011;10060;48.274;12.214;2022-09-03T17:44:39;2.28;;;1.30;;
19800;SDS011;10060;48.274;12.214;2022-09-03T17:47:49;3.85;;;1.55;;
19800;SDS011;10060;48.274;12.214;2022-09-03T17:50:55;1.88;;;1.33;;
19800;SDS011;10060;48.274;12.214;2022-09-03T17:53:59;1.92;;;1.45;;
19800;SDS011;10060;48.274;12.214;2022-09-03T17:57:09;1.75;;;1.35;;
19800;SDS011;10060;48.274;12.214;2022-09-03T18:00:21;2.75;;;1.48;;
19800;SDS011;10060;48.274;12.214;2022-09-03T18:03:25;1.80;;;1.30;;
19800;SDS011;10060;48.274;12.214;2022-09-03T18:06:31;4.40;;;1.52;;
19800;SDS011;10060;48.274;12.214;2022-09-03T18:09:36;2.55;;;1.30;;
19800;SDS011;10060;48.274;12.214;2022-09-03T18:12:42;4.13;;;1.30;;
19800;SDS011;10060;48.274;12.214;2022-09-03T18:15:49;1.95;;;1.30;;
19800;SDS011;10060;48.274;12.214;2022-09-03T18:18:57;2.55;;;1.30;;
19800;SDS011;10060;48.274;12.214;2022-09-03T18:22:01;1.33;;;1.02;;
19800;SDS011;10060;48.274;12.214;2022-09-03T18:25:23;1.40;;;1.10;;
19800;SDS011;10060;48.274;12.214;2022-09-03T18:28:46;5.97;;;1.48;;